createdAt,value
2024-01-24T00:00:40.473Z,100873.66
2024-01-24T00:03:08.593Z,100877.09
2024-01-24T00:05:36.583Z,100865.53
2024-01-24T00:08:04.848Z,100870.81
2024-01-24T00:10:32.743Z,100866.88
2024-01-24T00:13:00.773Z,100866.00
2024-01-24T00:15:28.679Z,100853.34
2024-01-24T00:17:58.014Z,100851.47
2024-01-24T00:20:26.009Z,100854.69
2024-01-24T00:22:53.890Z,100864.03
2024-01-24T00:25:21.731Z,100856.16
2024-01-24T00:27:49.719Z,100868.72
2024-01-24T00:30:17.715Z,100872.91
2024-01-24T00:32:45.650Z,100856.75
2024-01-24T00:35:14.998Z,100866.50
2024-01-24T00:37:42.997Z,100866.75
2024-01-24T00:40:11.966Z,100862.06
2024-01-24T00:42:44.043Z,100859.81
2024-01-24T00:45:13.067Z,100858.09
2024-01-24T00:47:41.556Z,100838.50
2024-01-24T00:50:10.483Z,100844.78
2024-01-24T00:52:40.044Z,100847.00
2024-01-24T00:55:08.572Z,100859.59
2024-01-24T00:57:36.545Z,100855.53
2024-01-24T01:00:07.173Z,100837.88
2024-01-24T01:02:35.167Z,100830.75
2024-01-24T01:05:05.293Z,100811.13
2024-01-24T01:07:33.372Z,100807.06
2024-01-24T01:10:02.691Z,100797.19
2024-01-24T01:12:31.814Z,100800.41
2024-01-24T01:14:59.768Z,100795.72
2024-01-24T01:17:27.740Z,100795.59
2024-01-24T01:19:55.641Z,100793.16
2024-01-24T01:22:23.568Z,100790.56
2024-01-24T01:24:51.526Z,100780.44
2024-01-24T01:27:20.828Z,100787.34
2024-01-24T01:29:48.770Z,100786.88
2024-01-24T01:32:16.903Z,100781.44
2024-01-24T01:34:44.933Z,100778.94
2024-01-24T01:37:13.474Z,100766.75
2024-01-24T01:39:41.437Z,100756.78
2024-01-24T01:42:09.510Z,100757.06
2024-01-24T01:44:45.214Z,100756.44
2024-01-24T01:47:14.172Z,100750.41
2024-01-24T01:49:45.364Z,100719.59
2024-01-24T01:52:13.811Z,100708.00
2024-01-24T01:54:44.059Z,100709.75
2024-01-24T01:57:13.115Z,100751.09
2024-01-24T01:59:43.654Z,100736.25
2024-01-24T02:02:12.762Z,100722.94
2024-01-24T02:04:40.816Z,100724.81
2024-01-24T02:07:08.907Z,100735.31
2024-01-24T02:09:37.158Z,100725.25
2024-01-24T02:12:05.740Z,100750.00
2024-01-24T02:14:34.112Z,100734.06
2024-01-24T02:17:03.373Z,100725.94
2024-01-24T02:19:31.244Z,100717.56
2024-01-24T02:21:59.226Z,100709.19
2024-01-24T02:24:28.852Z,100713.16
2024-01-24T02:26:56.768Z,100705.75
2024-01-24T02:29:24.660Z,100688.78
2024-01-24T02:31:52.634Z,100685.84
2024-01-24T02:34:20.617Z,100681.88
2024-01-24T02:36:48.677Z,100670.41
2024-01-24T02:39:16.734Z,100655.38
2024-01-24T02:41:46.763Z,100640.34
2024-01-24T02:44:14.945Z,100643.63
2024-01-24T02:46:42.942Z,100634.97
2024-01-24T02:49:11.047Z,100633.63
2024-01-24T02:51:39.140Z,100618.78
2024-01-24T02:54:07.428Z,100600.09
2024-01-24T02:56:36.640Z,100601.69
2024-01-24T02:59:06.584Z,100601.94
2024-01-24T03:01:34.614Z,100596.84
2024-01-24T03:04:02.674Z,100577.34
2024-01-24T03:06:30.708Z,100593.09
2024-01-24T03:08:59.936Z,100583.47
2024-01-24T03:11:28.037Z,100593.31
2024-01-24T03:13:56.056Z,100595.06
2024-01-24T03:16:25.341Z,100588.41
2024-01-24T03:18:53.624Z,100587.16
2024-01-24T03:21:21.903Z,100590.84
2024-01-24T03:23:49.839Z,100575.88
2024-01-24T03:26:18.077Z,100582.75
2024-01-24T03:28:46.010Z,100576.47
2024-01-24T03:31:14.175Z,100583.00
2024-01-24T03:33:43.649Z,100576.16
2024-01-24T03:36:12.103Z,100549.34
2024-01-24T03:38:40.213Z,100559.38
2024-01-24T03:41:08.224Z,100560.22
2024-01-24T03:43:36.170Z,100552.47
2024-01-24T03:46:04.182Z,100548.28
2024-01-24T03:48:32.264Z,100549.16
2024-01-24T03:51:01.810Z,100542.50
2024-01-24T03:53:29.760Z,100542.59
2024-01-24T03:55:57.620Z,100536.19
2024-01-24T03:58:25.513Z,100524.16
2024-01-24T04:00:56.377Z,100526.63
2024-01-24T04:03:24.518Z,100526.84
2024-01-24T04:05:52.563Z,100537.34
2024-01-24T04:08:21.917Z,100537.75
2024-01-24T04:10:49.845Z,100540.44
2024-01-24T04:13:17.772Z,100540.97
2024-01-24T04:15:45.868Z,100543.47
2024-01-24T04:18:14.120Z,100536.19
2024-01-24T04:20:42.333Z,100522.03
2024-01-24T04:23:10.361Z,100515.78
2024-01-24T04:25:39.647Z,100523.91
2024-01-24T04:28:07.863Z,100530.94
2024-01-24T04:30:35.852Z,100525.75
2024-01-24T04:33:04.643Z,100524.72
2024-01-24T04:35:32.747Z,100513.09
2024-01-24T04:38:00.760Z,100513.75
2024-01-24T04:40:28.639Z,100518.41
2024-01-24T04:42:58.136Z,100507.78
2024-01-24T04:45:26.218Z,100509.50
2024-01-24T04:47:54.226Z,100511.13
2024-01-24T04:50:23.186Z,100514.06
2024-01-24T04:52:51.248Z,100503.31
2024-01-24T04:55:19.368Z,100511.91
2024-01-24T04:57:47.401Z,100510.91
2024-01-24T05:00:17.437Z,100500.53
2024-01-24T05:02:45.560Z,100495.47
2024-01-24T05:05:13.530Z,100493.03
2024-01-24T05:07:41.607Z,100494.84
2024-01-24T05:10:10.362Z,100487.91
2024-01-24T05:12:38.460Z,100488.38
2024-01-24T05:15:09.256Z,100479.56
2024-01-24T05:17:41.212Z,100483.00
2024-01-24T05:20:12.064Z,100477.19
2024-01-24T05:22:40.442Z,100485.97
2024-01-24T05:25:08.935Z,100487.06
2024-01-24T05:27:36.881Z,100478.50
2024-01-24T05:30:15.791Z,100483.09
2024-01-24T05:32:49.512Z,100469.66
2024-01-24T05:35:19.684Z,100460.75
2024-01-24T05:37:47.903Z,100465.59
2024-01-24T05:40:16.127Z,100461.28
2024-01-24T05:42:44.083Z,100447.69
2024-01-24T05:45:12.807Z,100444.69
2024-01-24T05:47:40.971Z,100433.84
2024-01-24T05:50:14.253Z,100429.44
2024-01-24T05:52:44.058Z,100427.19
2024-01-24T05:55:13.117Z,100422.03
2024-01-24T05:57:41.693Z,100402.50
2024-01-24T06:00:11.807Z,100407.22
2024-01-24T06:02:39.888Z,100396.19
2024-01-24T06:05:10.169Z,100389.84
2024-01-24T06:07:39.790Z,100391.38
2024-01-24T06:10:09.815Z,100396.72
2024-01-24T06:12:37.795Z,100383.19
2024-01-24T06:15:06.708Z,100366.88
2024-01-24T06:17:35.563Z,100382.31
2024-01-24T06:20:03.702Z,100386.16
2024-01-24T06:22:31.758Z,100384.44
2024-01-24T06:25:07.235Z,100376.09
2024-01-24T06:27:36.549Z,100361.31
2024-01-24T06:30:18.482Z,100362.38
2024-01-24T06:32:50.884Z,100362.91
2024-01-24T06:35:19.156Z,100344.44
2024-01-24T06:37:47.187Z,100345.53
2024-01-24T06:40:16.862Z,100375.38
2024-01-24T06:42:44.936Z,100367.28
2024-01-24T06:45:13.671Z,100347.34
2024-01-24T06:47:41.861Z,100351.19
2024-01-24T06:50:14.278Z,100332.94
2024-01-24T06:52:42.472Z,100350.66
2024-01-24T06:55:10.917Z,100347.09
2024-01-24T06:57:40.221Z,100347.66
2024-01-24T07:00:09.758Z,100343.94
2024-01-24T07:02:38.492Z,100336.72
2024-01-24T07:05:07.346Z,100321.91
2024-01-24T07:07:35.428Z,100306.38
2024-01-24T07:10:03.519Z,100314.75
2024-01-24T07:12:31.942Z,100325.16
2024-01-24T07:15:01.299Z,100327.16
2024-01-24T07:17:29.314Z,100341.56
2024-01-24T07:19:57.378Z,100321.16
2024-01-24T07:22:25.361Z,100330.69
2024-01-24T07:24:53.385Z,100325.97
2024-01-24T07:27:21.439Z,100330.38
2024-01-24T07:29:50.629Z,100319.94
2024-01-24T07:32:19.958Z,100317.59
2024-01-24T07:34:48.010Z,100311.03
2024-01-24T07:37:16.748Z,100303.03
2024-01-24T07:39:44.685Z,100306.31
2024-01-24T07:42:12.742Z,100280.06
2024-01-24T07:44:40.705Z,100265.66
2024-01-24T07:47:08.687Z,100282.19
2024-01-24T07:49:40.326Z,100286.94
2024-01-24T07:52:08.616Z,100290.00
2024-01-24T07:54:36.727Z,100293.34
2024-01-24T07:57:05.294Z,100287.94
2024-01-24T07:59:33.430Z,100272.16
2024-01-24T08:02:03.795Z,100270.13
2024-01-24T08:04:33.317Z,100266.91
2024-01-24T08:07:02.854Z,100268.94
2024-01-24T08:09:31.013Z,100294.69
2024-01-24T08:11:59.163Z,100288.59
2024-01-24T08:14:27.224Z,100291.28
2024-01-24T08:17:04.947Z,100275.44
2024-01-24T08:19:32.940Z,100273.28
2024-01-24T08:22:03.198Z,100260.28
2024-01-24T08:24:31.638Z,100259.69
2024-01-24T08:27:00.449Z,100274.38
2024-01-24T08:29:36.491Z,100270.09
2024-01-24T08:32:07.119Z,100256.78
2024-01-24T08:34:37.586Z,100230.38
2024-01-24T08:37:08.068Z,100256.22
2024-01-24T08:39:36.099Z,100265.13
2024-01-24T08:42:04.401Z,100261.66
2024-01-24T08:44:32.409Z,100257.78
2024-01-24T08:47:00.431Z,100251.34
2024-01-24T08:49:28.482Z,100248.53
2024-01-24T08:51:57.816Z,100229.56
2024-01-24T08:54:27.332Z,100248.25
2024-01-24T08:56:56.086Z,100252.59
2024-01-24T08:59:24.059Z,100250.78
2024-01-24T09:01:56.418Z,100245.34
2024-01-24T09:04:24.577Z,100262.13
2024-01-24T09:06:53.162Z,100248.72
2024-01-24T09:09:22.155Z,100270.41
2024-01-24T09:11:56.791Z,100263.53
2024-01-24T09:14:25.552Z,100236.34
2024-01-24T09:16:53.843Z,100253.72
2024-01-24T09:19:22.822Z,100236.44
2024-01-24T09:21:51.586Z,100230.38
2024-01-24T09:24:20.016Z,100240.09
2024-01-24T09:26:48.187Z,100225.19
2024-01-24T09:29:17.504Z,100212.72
2024-01-24T09:31:47.478Z,100217.09
2024-01-24T09:34:15.978Z,100213.28
2024-01-24T09:36:44.227Z,100185.75
2024-01-24T09:39:13.276Z,100153.06
2024-01-24T09:41:43.872Z,100150.03
2024-01-24T09:44:14.162Z,100137.84
2024-01-24T09:46:44.042Z,100119.09
2024-01-24T09:49:12.563Z,100123.03
2024-01-24T09:51:42.921Z,100117.50
2024-01-24T09:54:11.149Z,100121.50
2024-01-24T09:56:40.370Z,100109.50
2024-01-24T09:59:09.977Z,100106.75
2024-01-24T10:01:40.613Z,100112.53
2024-01-24T10:04:10.452Z,100113.50
2024-01-24T10:06:40.760Z,100115.78
2024-01-24T10:09:09.406Z,100112.00
2024-01-24T10:11:37.565Z,100098.47
2024-01-24T10:14:06.097Z,100103.72
2024-01-24T10:16:34.224Z,100089.66
2024-01-24T10:19:02.341Z,100092.56
2024-01-24T10:21:31.933Z,100076.50
2024-01-24T10:24:00.535Z,100085.19
2024-01-24T10:26:30.910Z,100086.97
2024-01-24T10:28:58.971Z,100079.72
2024-01-24T10:31:26.941Z,100064.22
2024-01-24T10:33:56.574Z,100064.41
2024-01-24T10:36:28.018Z,100061.84
2024-01-24T10:39:05.134Z,100059.28
2024-01-24T10:41:38.088Z,100037.44
2024-01-24T10:44:10.708Z,100053.03
2024-01-24T10:46:39.422Z,100058.53
2024-01-24T10:49:07.993Z,100033.09
2024-01-24T10:51:36.461Z,100041.41
2024-01-24T10:54:07.012Z,100041.25
2024-01-24T10:56:36.500Z,100037.75
2024-01-24T10:59:05.827Z,100022.81
2024-01-24T11:01:34.333Z,100011.13
2024-01-24T11:04:08.937Z,100003.56
2024-01-24T11:06:44.275Z,100011.94
2024-01-24T11:09:25.236Z,100000.25
2024-01-24T11:11:55.283Z,99997.09
2024-01-24T11:14:33.236Z,100007.00
2024-01-24T11:17:02.246Z,99978.50
2024-01-24T11:19:32.192Z,99999.00
2024-01-24T11:22:10.514Z,99983.03
2024-01-24T11:24:54.206Z,99985.41
2024-01-24T11:27:31.716Z,99981.13
2024-01-24T11:30:01.548Z,99981.31
2024-01-24T11:33:03.676Z,99976.38
2024-01-24T11:35:37.125Z,99969.91
2024-01-24T11:38:30.682Z,99966.16
2024-01-24T11:41:03.450Z,99960.53
2024-01-24T11:43:36.641Z,99963.28
2024-01-24T11:46:09.034Z,99925.75
2024-01-24T11:48:39.831Z,99922.53
2024-01-24T11:51:10.060Z,99925.81
2024-01-24T11:53:38.206Z,99906.88
2024-01-24T11:56:08.741Z,99909.25
2024-01-24T11:58:36.810Z,99917.03
2024-01-24T12:01:06.329Z,99915.91
2024-01-24T12:03:34.617Z,99898.50
2024-01-24T12:06:03.562Z,99903.13
2024-01-24T12:08:31.644Z,99888.59
2024-01-24T12:11:00.084Z,99884.63
2024-01-24T12:13:30.818Z,99876.53
2024-01-24T12:16:00.554Z,99870.53
2024-01-24T12:18:29.543Z,99861.28
2024-01-24T12:21:02.161Z,99856.63
2024-01-24T12:23:31.315Z,99853.03
2024-01-24T12:25:59.808Z,99861.78
2024-01-24T12:28:30.823Z,99862.56
2024-01-24T12:30:59.752Z,99872.47
2024-01-24T12:33:32.897Z,99873.03
2024-01-24T12:36:08.289Z,99867.03
2024-01-24T12:38:37.510Z,99843.47
2024-01-24T12:41:06.333Z,99862.03
2024-01-24T12:43:37.760Z,99857.13
2024-01-24T12:46:10.581Z,99853.44
2024-01-24T12:48:39.652Z,99841.50
2024-01-24T12:51:08.362Z,99847.47
2024-01-24T12:53:36.523Z,99839.44
2024-01-24T12:56:05.229Z,99830.56
2024-01-24T12:58:34.333Z,99819.13
2024-01-24T13:01:03.784Z,99822.69
2024-01-24T13:03:32.162Z,99828.22
2024-01-24T13:06:00.683Z,99847.28
2024-01-24T13:08:28.869Z,99840.56
2024-01-24T13:10:57.657Z,99828.53
2024-01-24T13:13:25.832Z,99842.44
2024-01-24T13:15:54.943Z,99832.63
2024-01-24T13:18:25.146Z,99834.59
2024-01-24T13:20:53.104Z,99830.72
2024-01-24T13:23:21.887Z,99827.16
2024-01-24T13:25:50.556Z,99814.44
2024-01-24T13:28:18.882Z,99828.53
2024-01-24T13:30:46.892Z,99831.59
2024-01-24T13:33:15.058Z,99821.97
2024-01-24T13:35:44.669Z,99829.41
2024-01-24T13:38:12.682Z,99833.41
2024-01-24T13:40:40.659Z,99829.31
2024-01-24T13:43:08.979Z,99823.41
2024-01-24T13:45:39.883Z,99820.69
2024-01-24T13:48:10.304Z,99811.03
2024-01-24T13:50:38.893Z,99812.50
2024-01-24T13:53:08.412Z,99811.81
2024-01-24T13:55:36.458Z,99804.66
2024-01-24T13:58:05.047Z,99796.63
2024-01-24T14:00:33.427Z,99794.47
2024-01-24T14:03:01.482Z,99806.06
2024-01-24T14:05:29.497Z,99785.50
2024-01-24T14:07:57.855Z,99808.72
2024-01-24T14:10:27.229Z,99812.13
2024-01-24T14:12:55.625Z,99800.34
2024-01-24T14:15:32.974Z,99818.78
2024-01-24T14:18:03.575Z,99788.63
2024-01-24T14:20:31.750Z,99788.78
2024-01-24T14:22:59.983Z,99786.88
2024-01-24T14:25:29.258Z,99782.44
2024-01-24T14:27:57.714Z,99795.66
2024-01-24T14:30:26.367Z,99767.75
2024-01-24T14:32:54.376Z,99779.19
2024-01-24T14:35:24.162Z,99780.56
2024-01-24T14:37:52.472Z,99807.59
2024-01-24T14:40:20.788Z,99810.06
2024-01-24T14:42:50.288Z,99792.59
2024-01-24T14:45:19.029Z,99781.59
2024-01-24T14:47:47.062Z,99783.31
2024-01-24T14:50:15.419Z,99784.75
2024-01-24T14:52:43.524Z,99796.09
2024-01-24T14:55:11.955Z,99795.09
2024-01-24T14:57:40.024Z,99813.16
2024-01-24T15:00:11.907Z,99793.91
2024-01-24T15:02:40.333Z,99820.97
2024-01-24T15:05:09.556Z,99811.06
2024-01-24T15:07:38.289Z,99825.13
2024-01-24T15:10:08.391Z,99798.88
2024-01-24T15:12:36.486Z,99791.75
2024-01-24T15:15:05.199Z,99801.22
2024-01-24T15:17:34.700Z,99766.75
2024-01-24T15:20:04.404Z,99799.88
2024-01-24T15:22:34.059Z,99753.97
2024-01-24T15:25:02.328Z,99788.78
2024-01-24T15:27:30.639Z,99797.66
2024-01-24T15:30:00.434Z,99806.28
2024-01-24T15:32:29.679Z,99814.56
2024-01-24T15:34:59.351Z,99792.53
2024-01-24T15:37:27.666Z,99819.22
2024-01-24T15:39:55.777Z,99793.91
2024-01-24T15:42:25.356Z,99805.84
2024-01-24T15:44:53.377Z,99817.44
2024-01-24T15:47:21.403Z,99785.19
2024-01-24T15:49:49.401Z,99803.44
2024-01-24T15:52:20.235Z,99776.47
2024-01-24T15:54:49.412Z,99794.56
2024-01-24T15:57:18.637Z,99781.25
2024-01-24T15:59:46.869Z,99805.84
2024-01-24T16:02:16.108Z,99810.97
2024-01-24T16:04:44.248Z,99793.97
2024-01-24T16:07:12.626Z,99808.16
2024-01-24T16:09:42.512Z,99792.91
2024-01-24T16:12:13.044Z,99777.97
2024-01-24T16:14:41.634Z,99765.53
2024-01-24T16:17:11.636Z,99766.47
2024-01-24T16:19:40.782Z,99776.66
2024-01-24T16:22:10.345Z,99775.13
2024-01-24T16:24:38.876Z,99786.81
2024-01-24T16:27:08.229Z,99811.47
2024-01-24T16:29:36.292Z,99817.78
2024-01-24T16:32:04.431Z,99808.59
2024-01-24T16:34:33.031Z,99812.34
2024-01-24T16:37:01.121Z,99831.25
2024-01-24T16:39:29.452Z,99833.25
2024-01-24T16:41:57.447Z,99860.19
2024-01-24T16:44:26.910Z,99913.44
2024-01-24T16:46:54.837Z,99939.38
2024-01-24T16:49:23.500Z,99899.19
2024-01-24T16:51:52.869Z,99850.47
2024-01-24T16:54:20.875Z,99841.41
2024-01-24T16:56:48.831Z,99820.69
2024-01-24T16:59:16.865Z,99838.78
2024-01-24T17:01:46.225Z,99836.91
2024-01-24T17:04:14.452Z,99825.31
2024-01-24T17:06:44.831Z,99825.13
2024-01-24T17:09:14.116Z,99845.69
2024-01-24T17:11:42.005Z,99850.56
2024-01-24T17:14:09.921Z,99861.31
2024-01-24T17:16:38.199Z,99866.84
2024-01-24T17:19:07.576Z,99873.06
2024-01-24T17:21:35.536Z,99858.91
2024-01-24T17:24:03.583Z,99842.50
2024-01-24T17:26:31.800Z,99851.06
2024-01-24T17:28:59.872Z,99853.78
2024-01-24T17:31:27.797Z,99850.66
2024-01-24T17:33:55.823Z,99838.28
2024-01-24T17:36:25.348Z,99825.81
2024-01-24T17:38:55.650Z,99827.34
2024-01-24T17:41:25.170Z,99832.72
2024-01-24T17:43:53.280Z,99841.50
2024-01-24T17:46:23.971Z,99845.59
2024-01-24T17:48:52.613Z,99848.66
2024-01-24T17:51:20.813Z,99847.63
2024-01-24T17:53:50.137Z,99849.53
2024-01-24T17:56:21.212Z,99848.00
2024-01-24T17:58:50.802Z,99839.63
2024-01-24T18:01:20.322Z,99836.66
2024-01-24T18:03:48.586Z,99839.13
2024-01-24T18:06:16.849Z,99834.25
2024-01-24T18:08:44.969Z,99821.88
2024-01-24T18:11:15.309Z,99837.56
2024-01-24T18:13:43.259Z,99851.41
2024-01-24T18:16:12.166Z,99865.41
2024-01-24T18:18:40.562Z,99891.28
2024-01-24T18:21:10.899Z,99915.44
2024-01-24T18:23:39.331Z,99992.41
2024-01-24T18:26:07.283Z,99960.31
2024-01-24T18:28:36.698Z,100009.22
2024-01-24T18:31:04.800Z,99978.25
2024-01-24T18:33:32.946Z,99968.63
2024-01-24T18:36:00.960Z,99969.56
2024-01-24T18:38:28.839Z,99951.00
2024-01-24T18:40:57.036Z,99939.28
2024-01-24T18:43:24.974Z,99938.94
2024-01-24T18:45:54.454Z,99946.75
2024-01-24T18:48:23.338Z,99940.53
2024-01-24T18:51:02.997Z,99927.75
2024-01-24T18:53:31.571Z,99945.25
2024-01-24T18:56:00.560Z,99949.41
2024-01-24T18:58:30.145Z,99941.81
2024-01-24T19:01:00.332Z,99919.81
2024-01-24T19:03:28.860Z,99912.31
2024-01-24T19:05:57.080Z,99914.78
2024-01-24T19:08:25.187Z,99906.16
2024-01-24T19:10:53.139Z,99917.84
2024-01-24T19:13:25.248Z,99912.13
2024-01-24T19:15:53.414Z,99912.31
2024-01-24T19:18:25.255Z,99896.88
2024-01-24T19:20:53.665Z,99899.53
2024-01-24T19:23:21.654Z,99905.41
2024-01-24T19:25:49.657Z,99903.94
2024-01-24T19:28:18.688Z,99907.53
2024-01-24T19:30:47.390Z,99910.84
2024-01-24T19:33:15.564Z,99915.94
2024-01-24T19:35:45.013Z,99918.78
2024-01-24T19:38:13.247Z,99913.19
2024-01-24T19:40:42.045Z,99915.06
2024-01-24T19:43:10.078Z,99929.16
2024-01-24T19:45:38.042Z,99928.47
2024-01-24T19:48:06.792Z,99945.34
2024-01-24T19:50:34.744Z,99944.47
2024-01-24T19:53:04.776Z,99922.50
2024-01-24T19:55:32.824Z,99932.56
2024-01-24T19:58:00.769Z,99922.69
2024-01-24T20:00:28.803Z,99932.38
2024-01-24T20:02:58.092Z,99904.84
2024-01-24T20:05:26.113Z,99949.16
2024-01-24T20:07:54.094Z,99935.88
2024-01-24T20:10:23.521Z,99950.13
2024-01-24T20:12:51.506Z,99932.06
2024-01-24T20:15:19.986Z,99942.28
2024-01-24T20:17:49.064Z,99925.91
2024-01-24T20:20:18.468Z,99917.72
2024-01-24T20:22:46.679Z,99923.03
2024-01-24T20:25:14.640Z,99930.56
2024-01-24T20:27:44.052Z,99914.50
2024-01-24T20:30:12.674Z,99946.25
2024-01-24T20:32:45.637Z,99946.25
2024-01-24T20:35:21.128Z,99941.31
2024-01-24T20:37:49.076Z,99956.16
2024-01-24T20:40:17.591Z,99942.94
2024-01-24T20:42:48.831Z,99960.06
2024-01-24T20:45:17.265Z,99958.25
2024-01-24T20:47:45.227Z,99959.97
2024-01-24T20:50:13.344Z,99965.94
2024-01-24T20:52:41.350Z,99968.84
2024-01-24T20:55:09.393Z,99954.47
2024-01-24T20:57:37.389Z,99968.28
2024-01-24T21:00:09.830Z,99948.19
2024-01-24T21:02:38.088Z,99956.88
2024-01-24T21:05:07.126Z,99939.16
2024-01-24T21:07:35.403Z,99939.06
2024-01-24T21:10:03.443Z,99923.09
2024-01-24T21:12:31.394Z,99937.50
2024-01-24T21:14:59.680Z,99935.56
2024-01-24T21:17:29.114Z,99958.63
2024-01-24T21:19:57.248Z,99935.03
2024-01-24T21:22:25.525Z,99936.94
2024-01-24T21:24:53.613Z,99945.28
2024-01-24T21:27:21.520Z,99934.19
2024-01-24T21:29:49.379Z,99951.78
2024-01-24T21:32:17.770Z,99960.91
2024-01-24T21:34:47.339Z,99951.00
2024-01-24T21:37:15.409Z,99965.28
2024-01-24T21:39:43.640Z,99957.16
2024-01-24T21:42:11.603Z,99966.38
2024-01-24T21:44:39.474Z,99957.41
2024-01-24T21:47:07.820Z,99962.53
2024-01-24T21:49:39.178Z,99955.28
2024-01-24T21:52:08.807Z,99941.34
2024-01-24T21:54:36.744Z,99951.44
2024-01-24T21:57:05.298Z,99953.28
2024-01-24T21:59:33.946Z,99951.81
2024-01-24T22:02:01.967Z,99963.72
2024-01-24T22:04:30.061Z,99950.13
2024-01-24T22:06:58.156Z,99951.19
2024-01-24T22:09:28.855Z,99966.25
2024-01-24T22:11:57.687Z,99954.88
2024-01-24T22:14:26.060Z,99965.56
2024-01-24T22:16:54.328Z,99964.88
2024-01-24T22:19:22.327Z,99969.06
2024-01-24T22:21:50.328Z,99965.19
2024-01-24T22:24:18.455Z,99965.50
2024-01-24T22:26:47.760Z,99971.41
2024-01-24T22:29:15.737Z,99966.69
2024-01-24T22:31:43.742Z,99972.69
2024-01-24T22:34:11.839Z,99971.13
2024-01-24T22:36:40.136Z,99977.09
2024-01-24T22:39:08.106Z,99978.88
2024-01-24T22:41:36.082Z,99979.81
2024-01-24T22:44:05.593Z,99989.91
2024-01-24T22:46:33.523Z,99974.25
2024-01-24T22:49:02.648Z,99990.06
2024-01-24T22:51:31.649Z,99981.84
2024-01-24T22:53:59.661Z,99993.50
2024-01-24T22:56:27.871Z,99991.44
2024-01-24T22:58:55.737Z,99993.94
2024-01-24T23:01:25.321Z,99990.75
2024-01-24T23:03:53.388Z,100001.69
2024-01-24T23:06:21.385Z,99994.41
2024-01-24T23:08:49.331Z,99995.19
2024-01-24T23:11:17.339Z,99987.81
2024-01-24T23:13:45.327Z,99999.75
2024-01-24T23:16:13.352Z,99993.34
2024-01-24T23:18:42.817Z,99986.06
2024-01-24T23:21:10.776Z,99993.59
2024-01-24T23:23:40.158Z,99991.19
2024-01-24T23:26:08.095Z,99988.53
2024-01-24T23:28:36.055Z,99991.03
2024-01-24T23:31:04.089Z,99991.88
2024-01-24T23:33:34.660Z,99989.47
2024-01-24T23:36:05.051Z,99995.59
2024-01-24T23:38:33.586Z,99996.44
2024-01-24T23:41:02.246Z,99962.97
2024-01-24T23:43:30.223Z,99988.91
2024-01-24T23:45:58.151Z,99981.81
2024-01-24T23:48:26.603Z,99985.16
2024-01-24T23:50:54.851Z,99991.59
2024-01-24T23:53:24.347Z,99967.03
2024-01-24T23:55:52.437Z,99970.34
2024-01-24T23:58:20.421Z,99970.66
